createdAt,value
2018-06-30T00:00:14.196Z,1012.2
2018-06-30T00:01:19.457Z,1012.2
2018-06-30T00:02:23.780Z,1012.2
2018-06-30T00:03:27.786Z,1012.2
2018-06-30T00:04:31.525Z,1012.2
2018-06-30T00:05:35.028Z,1012.2
2018-06-30T00:06:37.707Z,1012.2
2018-06-30T00:07:40.054Z,1012.2
2018-06-30T00:08:42.430Z,1012.2
2018-06-30T00:09:45.494Z,1012.2
2018-06-30T00:10:49.025Z,1012.2
2018-06-30T00:11:54.716Z,1012.2
2018-06-30T00:12:59.317Z,1012.2
2018-06-30T00:14:04.301Z,1012.2
2018-06-30T00:15:07.770Z,1012.2
2018-06-30T00:16:11.114Z,1012.2
2018-06-30T00:17:14.794Z,1012.2
2018-06-30T00:18:19.042Z,1012.2
2018-06-30T00:19:21.582Z,1012.2
2018-06-30T00:20:25.929Z,1012.3
2018-06-30T00:21:30.560Z,1012.3
2018-06-30T00:22:34.400Z,1012.3
2018-06-30T00:23:37.250Z,1012.3
2018-06-30T00:24:41.451Z,1012.3
2018-06-30T00:25:46.149Z,1012.3
2018-06-30T00:26:48.713Z,1012.3
2018-06-30T00:27:51.717Z,1012.3
2018-06-30T00:28:56.633Z,1012.3
2018-06-30T00:30:00.642Z,1012.3
2018-06-30T00:31:04.117Z,1012.3
2018-06-30T00:32:07.866Z,1012.3
2018-06-30T00:33:11.294Z,1012.3
2018-06-30T00:34:14.202Z,1012.3
2018-06-30T00:35:18.557Z,1012.4
2018-06-30T00:36:20.884Z,1012.3
2018-06-30T00:37:23.912Z,1012.3
2018-06-30T00:38:27.485Z,1012.3
2018-06-30T00:39:30.349Z,1012.3
2018-06-30T00:40:33.917Z,1012.3
2018-06-30T00:41:39.041Z,1012.4
2018-06-30T00:42:43.268Z,1012.3
2018-06-30T00:43:47.710Z,1012.3
2018-06-30T00:44:51.502Z,1012.3
2018-06-30T00:45:54.832Z,1012.3
2018-06-30T00:46:59.786Z,1012.3
2018-06-30T00:48:01.917Z,1012.3
2018-06-30T00:49:04.013Z,1012.3
2018-06-30T00:50:06.262Z,1012.4
2018-06-30T00:51:08.478Z,1012.3
2018-06-30T00:52:10.846Z,1012.3
2018-06-30T00:53:12.919Z,1012.4
2018-06-30T00:54:15.280Z,1012.3
2018-06-30T00:55:17.327Z,1012.4
2018-06-30T00:56:19.781Z,1012.4
2018-06-30T00:57:21.830Z,1012.4
2018-06-30T00:58:23.867Z,1012.4
2018-06-30T00:59:25.920Z,1012.4
2018-06-30T01:00:27.953Z,1012.5
2018-06-30T01:01:30.012Z,1012.5
2018-06-30T01:02:32.334Z,1012.4
2018-06-30T01:03:34.368Z,1012.4
2018-06-30T01:04:36.415Z,1012.5
2018-06-30T01:05:38.453Z,1012.5
2018-06-30T01:06:40.502Z,1012.5
2018-06-30T01:07:42.548Z,1012.5
2018-06-30T01:08:44.576Z,1012.5
2018-06-30T01:09:46.623Z,1012.5
2018-06-30T01:10:48.663Z,1012.5
2018-06-30T01:11:50.708Z,1012.5
2018-06-30T01:12:52.757Z,1012.5
2018-06-30T01:13:54.786Z,1012.6
2018-06-30T01:14:56.850Z,1012.6
2018-06-30T01:15:59.173Z,1012.6
2018-06-30T01:17:01.233Z,1012.6
2018-06-30T01:18:03.283Z,1012.6
2018-06-30T01:19:05.346Z,1012.7
2018-06-30T01:20:07.718Z,1012.7
2018-06-30T01:21:09.783Z,1012.7
2018-06-30T01:22:12.291Z,1012.6
2018-06-30T01:23:14.415Z,1012.7
2018-06-30T01:24:16.584Z,1012.6
2018-06-30T01:25:18.998Z,1012.7
2018-06-30T01:26:21.688Z,1012.7
2018-06-30T01:27:24.025Z,1012.7
2018-06-30T01:28:26.402Z,1012.7
2018-06-30T01:29:29.654Z,1012.7
2018-06-30T01:30:32.229Z,1012.7
2018-06-30T01:31:34.679Z,1012.7
2018-06-30T01:32:37.016Z,1012.7
2018-06-30T01:33:39.768Z,1012.7
2018-06-30T01:34:42.172Z,1012.7
2018-06-30T01:35:45.053Z,1012.7
2018-06-30T01:36:48.264Z,1012.7
2018-06-30T01:37:51.169Z,1012.8
2018-06-30T01:38:54.318Z,1012.8
2018-06-30T01:39:57.053Z,1012.7
2018-06-30T01:41:00.023Z,1012.7
2018-06-30T01:42:03.016Z,1012.7
2018-06-30T01:43:05.663Z,1012.7
2018-06-30T01:44:08.215Z,1012.7
2018-06-30T01:45:11.031Z,1012.7
2018-06-30T01:46:13.852Z,1012.7
2018-06-30T01:47:16.893Z,1012.7
2018-06-30T01:48:19.801Z,1012.7
2018-06-30T01:49:22.322Z,1012.7
2018-06-30T01:50:24.398Z,1012.7
2018-06-30T01:51:26.642Z,1012.7
2018-06-30T01:52:28.858Z,1012.7
2018-06-30T01:53:31.175Z,1012.8
2018-06-30T01:54:33.245Z,1012.7
2018-06-30T01:55:35.341Z,1012.7
2018-06-30T01:56:38.017Z,1012.7
2018-06-30T01:57:40.162Z,1012.7
2018-06-30T01:58:42.430Z,1012.6
2018-06-30T01:59:44.628Z,1012.7
2018-06-30T02:00:46.775Z,1012.7
2018-06-30T02:01:48.978Z,1012.7
2018-06-30T02:02:51.118Z,1012.7
2018-06-30T02:03:53.223Z,1012.7
2018-06-30T02:04:55.674Z,1012.7
2018-06-30T02:05:57.782Z,1012.7
2018-06-30T02:07:00.203Z,1012.7
2018-06-30T02:08:02.321Z,1012.7
2018-06-30T02:09:04.752Z,1012.7
2018-06-30T02:10:07.178Z,1012.7
2018-06-30T02:11:09.480Z,1012.7
2018-06-30T02:12:11.541Z,1012.7
2018-06-30T02:13:13.893Z,1012.7
2018-06-30T02:14:16.256Z,1012.7
2018-06-30T02:15:18.380Z,1012.7
2018-06-30T02:16:20.450Z,1012.7
2018-06-30T02:17:22.821Z,1012.7
2018-06-30T02:18:24.945Z,1012.7
2018-06-30T02:19:27.370Z,1012.7
2018-06-30T02:20:29.941Z,1012.7
2018-06-30T02:21:32.440Z,1012.7
2018-06-30T02:22:34.959Z,1012.6
2018-06-30T02:23:37.056Z,1012.7
2018-06-30T02:24:39.197Z,1012.7
2018-06-30T02:25:41.388Z,1012.7
2018-06-30T02:26:43.608Z,1012.6
2018-06-30T02:27:45.747Z,1012.7
2018-06-30T02:28:48.762Z,1012.7
2018-06-30T02:29:50.937Z,1012.7
2018-06-30T02:30:53.079Z,1012.7
2018-06-30T02:31:55.607Z,1012.7
2018-06-30T02:32:57.752Z,1012.7
2018-06-30T02:33:59.908Z,1012.7
2018-06-30T02:35:02.568Z,1012.7
2018-06-30T02:36:05.218Z,1012.7
2018-06-30T02:37:07.526Z,1012.7
2018-06-30T02:38:10.456Z,1012.7
2018-06-30T02:39:12.914Z,1012.7
2018-06-30T02:40:15.364Z,1012.8
2018-06-30T02:41:17.565Z,1012.7
2018-06-30T02:42:19.645Z,1012.7
2018-06-30T02:43:22.130Z,1012.7
2018-06-30T02:44:24.539Z,1012.7
2018-06-30T02:45:26.913Z,1012.7
2018-06-30T02:46:29.222Z,1012.7
2018-06-30T02:47:32.072Z,1012.7
2018-06-30T02:48:34.565Z,1012.7
2018-06-30T02:49:36.758Z,1012.7
2018-06-30T02:50:38.879Z,1012.8
2018-06-30T02:51:40.955Z,1012.8
2018-06-30T02:52:43.106Z,1012.7
2018-06-30T02:53:45.517Z,1012.8
2018-06-30T02:54:48.561Z,1012.8
2018-06-30T02:55:50.958Z,1012.8
2018-06-30T02:56:53.067Z,1012.8
2018-06-30T02:57:55.515Z,1012.8
2018-06-30T02:58:57.666Z,1012.8
2018-06-30T02:59:59.738Z,1012.8
2018-06-30T03:01:02.815Z,1012.8
2018-06-30T03:02:05.097Z,1012.8
2018-06-30T03:03:07.275Z,1012.8
2018-06-30T03:04:09.673Z,1012.8
2018-06-30T03:05:11.802Z,1012.8
2018-06-30T03:06:14.296Z,1012.8
2018-06-30T03:07:17.021Z,1012.8
2018-06-30T03:08:19.115Z,1012.8
2018-06-30T03:09:21.892Z,1012.8
2018-06-30T03:10:24.035Z,1012.8
2018-06-30T03:11:26.601Z,1012.8
2018-06-30T03:12:28.729Z,1012.9
2018-06-30T03:13:31.123Z,1012.9
2018-06-30T03:14:33.303Z,1012.8
2018-06-30T03:15:35.463Z,1012.9
2018-06-30T03:16:37.972Z,1012.9
2018-06-30T03:17:40.091Z,1012.9
2018-06-30T03:18:42.212Z,1012.9
2018-06-30T03:19:44.322Z,1012.9
2018-06-30T03:20:46.934Z,1012.9
2018-06-30T03:21:49.038Z,1012.9
2018-06-30T03:22:51.147Z,1012.9
2018-06-30T03:23:53.377Z,1012.9
2018-06-30T03:24:55.707Z,1012.9
2018-06-30T03:25:58.251Z,1012.9
2018-06-30T03:27:00.977Z,1012.9
2018-06-30T03:28:03.570Z,1013
2018-06-30T03:29:06.442Z,1012.9
2018-06-30T03:30:09.030Z,1013
2018-06-30T03:31:11.798Z,1012.9
2018-06-30T03:32:13.877Z,1012.9
2018-06-30T03:33:16.051Z,1012.9
2018-06-30T03:34:18.131Z,1012.9
2018-06-30T03:35:20.275Z,1012.9
2018-06-30T03:36:22.414Z,1012.9
2018-06-30T03:37:24.599Z,1012.9
2018-06-30T03:38:27.143Z,1013
2018-06-30T03:39:30.366Z,1013
2018-06-30T03:40:32.499Z,1013
2018-06-30T03:41:34.577Z,1013
2018-06-30T03:42:36.647Z,1013
2018-06-30T03:43:38.781Z,1013
2018-06-30T03:44:41.174Z,1013
2018-06-30T03:45:43.267Z,1013
2018-06-30T03:46:45.396Z,1013
2018-06-30T03:47:47.563Z,1013
2018-06-30T03:48:49.724Z,1013
2018-06-30T03:49:51.880Z,1013
2018-06-30T03:50:54.012Z,1013
2018-06-30T03:51:56.169Z,1013
2018-06-30T03:52:58.320Z,1013
2018-06-30T03:54:00.630Z,1013
2018-06-30T03:55:03.021Z,1013
2018-06-30T03:56:05.337Z,1013
2018-06-30T03:57:07.821Z,1013
2018-06-30T03:58:09.908Z,1013.1
2018-06-30T03:59:11.944Z,1013
2018-06-30T04:00:13.981Z,1013
2018-06-30T04:01:16.416Z,1013
2018-06-30T04:02:18.451Z,1013.1
2018-06-30T04:03:20.499Z,1013.1
2018-06-30T04:04:22.538Z,1013.1
2018-06-30T04:05:24.576Z,1013.1
2018-06-30T04:06:26.612Z,1013.1
2018-06-30T04:07:28.653Z,1013.1
2018-06-30T04:08:30.985Z,1013.1
2018-06-30T04:09:33.016Z,1013.1
2018-06-30T04:10:35.737Z,1013.1
2018-06-30T04:11:37.775Z,1013.1
2018-06-30T04:12:39.807Z,1013.1
2018-06-30T04:13:42.232Z,1013.1
2018-06-30T04:14:44.272Z,1013.1
2018-06-30T04:15:46.315Z,1013.1
2018-06-30T04:16:48.639Z,1013.1
2018-06-30T04:17:50.696Z,1013.1
2018-06-30T04:18:52.739Z,1013.1
2018-06-30T04:19:54.770Z,1013.2
2018-06-30T04:20:57.108Z,1013.2
2018-06-30T04:21:59.185Z,1013.1
2018-06-30T04:23:01.193Z,1013.1
2018-06-30T04:24:03.226Z,1013.2
2018-06-30T04:25:05.354Z,1013.1
2018-06-30T04:26:07.447Z,1013.1
2018-06-30T04:27:09.723Z,1013.1
2018-06-30T04:28:12.137Z,1013.1
2018-06-30T04:29:14.533Z,1013.1
2018-06-30T04:30:16.815Z,1013.2
2018-06-30T04:31:18.942Z,1013.1
2018-06-30T04:32:21.027Z,1013.2
2018-06-30T04:33:23.297Z,1013.1
2018-06-30T04:34:25.444Z,1013.2
2018-06-30T04:35:27.584Z,1013.2
2018-06-30T04:36:29.747Z,1013.2
2018-06-30T04:37:31.822Z,1013.2
2018-06-30T04:38:33.900Z,1013.3
2018-06-30T04:39:36.538Z,1013.3
2018-06-30T04:40:38.804Z,1013.3
2018-06-30T04:41:40.918Z,1013.2
2018-06-30T04:42:43.259Z,1013.3
2018-06-30T04:43:45.558Z,1013.2
2018-06-30T04:44:47.918Z,1013.2
2018-06-30T04:45:50.485Z,1013.2
2018-06-30T04:46:52.531Z,1013.2
2018-06-30T04:47:54.759Z,1013.2
2018-06-30T04:48:56.914Z,1013.2
2018-06-30T04:49:59.312Z,1013.2
2018-06-30T04:51:01.924Z,1013.2
2018-06-30T04:52:03.955Z,1013.2
2018-06-30T04:53:06.049Z,1013.2
2018-06-30T04:54:08.438Z,1013.2
2018-06-30T04:55:11.196Z,1013.2
2018-06-30T04:56:13.347Z,1013.2
2018-06-30T04:57:15.421Z,1013.2
2018-06-30T04:58:17.584Z,1013.2
2018-06-30T04:59:19.695Z,1013.2
2018-06-30T05:00:21.746Z,1013.2
2018-06-30T05:01:23.896Z,1013.3
2018-06-30T05:02:26.053Z,1013.3
2018-06-30T05:03:28.151Z,1013.3
2018-06-30T05:04:30.253Z,1013.3
2018-06-30T05:05:32.301Z,1013.3
2018-06-30T05:06:34.553Z,1013.2
2018-06-30T05:07:36.802Z,1013.2
2018-06-30T05:08:39.244Z,1013.3
2018-06-30T05:09:41.358Z,1013.3
2018-06-30T05:10:43.497Z,1013.3
2018-06-30T05:11:45.605Z,1013.3
2018-06-30T05:12:47.689Z,1013.3
2018-06-30T05:13:50.110Z,1013.3
2018-06-30T05:14:52.270Z,1013.3
2018-06-30T05:15:54.493Z,1013.3
2018-06-30T05:16:57.159Z,1013.3
2018-06-30T05:17:59.420Z,1013.3
2018-06-30T05:19:01.598Z,1013.3
2018-06-30T05:20:04.098Z,1013.4
2018-06-30T05:21:06.245Z,1013.3
2018-06-30T05:22:08.622Z,1013.3
2018-06-30T05:23:11.100Z,1013.4
2018-06-30T05:24:13.266Z,1013.4
2018-06-30T05:25:15.411Z,1013.4
2018-06-30T05:26:17.580Z,1013.4
2018-06-30T05:27:19.987Z,1013.4
2018-06-30T05:28:22.043Z,1013.5
2018-06-30T05:29:24.361Z,1013.4
2018-06-30T05:30:26.401Z,1013.5
2018-06-30T05:31:28.530Z,1013.5
2018-06-30T05:32:31.061Z,1013.5
2018-06-30T05:33:33.401Z,1013.5
2018-06-30T05:34:35.333Z,1013.6
2018-06-30T05:35:37.485Z,1013.6
2018-06-30T05:36:39.844Z,1013.6
2018-06-30T05:37:41.951Z,1013.6
2018-06-30T05:38:44.338Z,1013.6
2018-06-30T05:39:46.420Z,1013.6
2018-06-30T05:40:49.038Z,1013.5
2018-06-30T05:41:51.578Z,1013.6
2018-06-30T05:42:53.726Z,1013.5
2018-06-30T05:43:56.108Z,1013.5
2018-06-30T05:44:58.236Z,1013.6
2018-06-30T05:46:00.890Z,1013.7
2018-06-30T05:47:03.040Z,1013.6
2018-06-30T05:48:05.454Z,1013.7
2018-06-30T05:49:08.230Z,1013.7
2018-06-30T05:50:10.727Z,1013.7
2018-06-30T05:51:12.839Z,1013.7
2018-06-30T05:52:14.945Z,1013.7
2018-06-30T05:53:17.184Z,1013.7
2018-06-30T05:54:19.126Z,1013.7
2018-06-30T05:55:21.706Z,1013.7
2018-06-30T05:56:23.854Z,1013.7
2018-06-30T05:57:26.193Z,1013.7
2018-06-30T05:58:28.317Z,1013.7
2018-06-30T05:59:30.540Z,1013.7
2018-06-30T06:00:33.012Z,1013.6
2018-06-30T06:01:35.303Z,1013.6
2018-06-30T06:02:37.382Z,1013.7
2018-06-30T06:03:39.430Z,1013.7
2018-06-30T06:04:41.643Z,1013.7
2018-06-30T06:05:44.135Z,1013.7
2018-06-30T06:06:46.565Z,1013.7
2018-06-30T06:07:48.706Z,1013.7
2018-06-30T06:08:51.207Z,1013.7
2018-06-30T06:09:53.366Z,1013.7
2018-06-30T06:10:55.727Z,1013.7
2018-06-30T06:11:57.836Z,1013.8
2018-06-30T06:12:59.932Z,1013.8
2018-06-30T06:14:02.096Z,1013.8
2018-06-30T06:15:04.225Z,1013.8
2018-06-30T06:16:06.334Z,1013.8
2018-06-30T06:17:08.892Z,1013.8
2018-06-30T06:18:10.983Z,1013.8
2018-06-30T06:19:13.435Z,1013.8
2018-06-30T06:20:15.607Z,1013.8
2018-06-30T06:21:17.774Z,1013.8
2018-06-30T06:22:20.521Z,1013.7
2018-06-30T06:23:22.954Z,1013.7
2018-06-30T06:24:25.331Z,1013.8
2018-06-30T06:25:27.504Z,1013.7
2018-06-30T06:26:29.920Z,1013.7
2018-06-30T06:27:32.321Z,1013.7
2018-06-30T06:28:34.829Z,1013.7
2018-06-30T06:29:36.900Z,1013.7
2018-06-30T06:30:39.315Z,1013.7
2018-06-30T06:31:41.818Z,1013.7
2018-06-30T06:32:44.214Z,1013.7
2018-06-30T06:33:46.751Z,1013.7
2018-06-30T06:34:48.955Z,1013.7
2018-06-30T06:35:51.083Z,1013.7
2018-06-30T06:36:53.407Z,1013.6
2018-06-30T06:37:55.917Z,1013.7
2018-06-30T06:38:58.073Z,1013.6
2018-06-30T06:40:00.529Z,1013.6
2018-06-30T06:41:02.608Z,1013.6
2018-06-30T06:42:04.747Z,1013.6
2018-06-30T06:43:06.870Z,1013.7
2018-06-30T06:44:08.958Z,1013.7
2018-06-30T06:45:11.080Z,1013.6
2018-06-30T06:46:13.784Z,1013.7
2018-06-30T06:47:15.843Z,1013.6
2018-06-30T06:48:18.092Z,1013.7
2018-06-30T06:49:20.223Z,1013.7
2018-06-30T06:50:22.271Z,1013.6
2018-06-30T06:51:24.608Z,1013.6
2018-06-30T06:52:27.113Z,1013.7
2018-06-30T06:53:29.571Z,1013.7
2018-06-30T06:54:31.666Z,1013.7
2018-06-30T06:55:33.788Z,1013.7
2018-06-30T06:56:35.915Z,1013.7
2018-06-30T06:57:38.234Z,1013.7
2018-06-30T06:58:40.455Z,1013.7
2018-06-30T06:59:42.503Z,1013.7
2018-06-30T07:00:44.904Z,1013.7
2018-06-30T07:01:47.409Z,1013.7
2018-06-30T07:02:49.526Z,1013.7
2018-06-30T07:03:51.792Z,1013.7
2018-06-30T07:04:53.982Z,1013.6
2018-06-30T07:05:56.820Z,1013.7
2018-06-30T07:06:59.195Z,1013.7
2018-06-30T07:08:01.916Z,1013.7
2018-06-30T07:09:03.991Z,1013.7
2018-06-30T07:10:06.126Z,1013.7
2018-06-30T07:11:08.253Z,1013.7
2018-06-30T07:12:10.400Z,1013.7
2018-06-30T07:13:12.688Z,1013.7
2018-06-30T07:14:15.058Z,1013.7
2018-06-30T07:15:17.573Z,1013.7
2018-06-30T07:16:20.677Z,1013.7
2018-06-30T07:17:22.959Z,1013.7
2018-06-30T07:18:25.015Z,1013.7
2018-06-30T07:19:27.055Z,1013.7
2018-06-30T07:20:29.399Z,1013.7
2018-06-30T07:21:31.403Z,1013.7
2018-06-30T07:22:33.394Z,1013.7
2018-06-30T07:23:35.398Z,1013.7
2018-06-30T07:24:37.450Z,1013.7
2018-06-30T07:25:39.875Z,1013.7
2018-06-30T07:26:42.193Z,1013.7
2018-06-30T07:27:44.189Z,1013.7
2018-06-30T07:28:46.481Z,1013.7
2018-06-30T07:29:48.465Z,1013.7
2018-06-30T07:30:50.473Z,1013.7
2018-06-30T07:31:52.481Z,1013.7
2018-06-30T07:32:54.484Z,1013.8
2018-06-30T07:33:56.481Z,1013.8
2018-06-30T07:34:58.480Z,1013.8
2018-06-30T07:36:00.483Z,1013.8
2018-06-30T07:37:02.783Z,1013.8
2018-06-30T07:38:04.776Z,1013.7
2018-06-30T07:39:06.777Z,1013.7
2018-06-30T07:40:08.776Z,1013.8
2018-06-30T07:41:10.781Z,1013.7
2018-06-30T07:42:12.780Z,1013.8
2018-06-30T07:43:15.091Z,1013.8
2018-06-30T07:44:17.341Z,1013.7
2018-06-30T07:45:19.347Z,1013.8
2018-06-30T07:46:21.336Z,1013.7
2018-06-30T07:47:23.638Z,1013.7
2018-06-30T07:48:26.024Z,1013.7
2018-06-30T07:49:28.025Z,1013.7
2018-06-30T07:50:30.028Z,1013.7
2018-06-30T07:51:32.032Z,1013.7
2018-06-30T07:52:34.041Z,1013.7
2018-06-30T07:53:36.028Z,1013.8
2018-06-30T07:54:38.028Z,1013.8
2018-06-30T07:55:40.039Z,1013.8
2018-06-30T07:56:42.036Z,1013.7
2018-06-30T07:57:44.045Z,1013.8
2018-06-30T07:58:46.046Z,1013.7
2018-06-30T07:59:48.052Z,1013.7
2018-06-30T08:00:50.063Z,1013.7
2018-06-30T08:01:52.056Z,1013.7
2018-06-30T08:02:54.348Z,1013.7
2018-06-30T08:03:56.351Z,1013.7
2018-06-30T08:04:58.348Z,1013.8
2018-06-30T08:06:00.350Z,1013.7
2018-06-30T08:07:02.635Z,1013.7
2018-06-30T08:08:04.922Z,1013.7
2018-06-30T08:09:06.926Z,1013.7
2018-06-30T08:10:08.917Z,1013.8
2018-06-30T08:11:11.301Z,1013.7
2018-06-30T08:12:13.315Z,1013.7
2018-06-30T08:13:15.605Z,1013.7
2018-06-30T08:14:17.888Z,1013.8
2018-06-30T08:15:19.895Z,1013.8
2018-06-30T08:16:21.891Z,1013.8
2018-06-30T08:17:23.901Z,1013.8
2018-06-30T08:18:25.902Z,1013.9
2018-06-30T08:19:28.684Z,1013.8
2018-06-30T08:20:30.698Z,1013.8
2018-06-30T08:21:32.693Z,1013.8
2018-06-30T08:22:34.701Z,1013.7
2018-06-30T08:23:36.708Z,1013.8
2018-06-30T08:24:38.709Z,1013.8
2018-06-30T08:25:40.726Z,1013.8
2018-06-30T08:26:42.726Z,1013.8
2018-06-30T08:27:44.738Z,1013.8
2018-06-30T08:28:46.736Z,1013.8
2018-06-30T08:29:48.763Z,1013.8
2018-06-30T08:30:50.773Z,1013.8
2018-06-30T08:31:52.777Z,1013.9
2018-06-30T08:32:54.783Z,1013.8
2018-06-30T08:33:56.789Z,1013.9
2018-06-30T08:34:59.066Z,1013.8
2018-06-30T08:36:01.388Z,1013.8
2018-06-30T08:37:03.389Z,1013.8
2018-06-30T08:38:05.394Z,1013.9
2018-06-30T08:39:07.409Z,1013.8
2018-06-30T08:40:09.694Z,1013.9
2018-06-30T08:41:11.978Z,1013.9
2018-06-30T08:42:13.980Z,1013.8
2018-06-30T08:43:16.281Z,1013.8
2018-06-30T08:44:18.289Z,1013.9
2018-06-30T08:45:20.288Z,1013.9
2018-06-30T08:46:22.293Z,1013.9
2018-06-30T08:47:24.298Z,1013.9
2018-06-30T08:48:26.305Z,1013.8
2018-06-30T08:49:28.306Z,1013.8
2018-06-30T08:50:30.331Z,1013.8
2018-06-30T08:51:32.337Z,1013.8
2018-06-30T08:52:34.678Z,1013.8
2018-06-30T08:53:36.954Z,1013.7
2018-06-30T08:54:38.949Z,1013.7
2018-06-30T08:55:41.277Z,1013.7
2018-06-30T08:56:43.654Z,1013.7
2018-06-30T08:57:45.662Z,1013.7
2018-06-30T08:58:47.730Z,1013.7
2018-06-30T08:59:49.737Z,1013.7
2018-06-30T09:00:51.752Z,1013.7
2018-06-30T09:01:54.029Z,1013.7
2018-06-30T09:02:56.034Z,1013.7
2018-06-30T09:03:58.050Z,1013.7
2018-06-30T09:05:00.051Z,1013.7
2018-06-30T09:06:02.050Z,1013.7
2018-06-30T09:07:04.064Z,1013.6
2018-06-30T09:08:06.077Z,1013.6
2018-06-30T09:09:08.081Z,1013.6
2018-06-30T09:10:10.087Z,1013.6
2018-06-30T09:11:12.099Z,1013.6
2018-06-30T09:12:14.169Z,1013.6
2018-06-30T09:13:16.116Z,1013.6
2018-06-30T09:14:18.115Z,1013.7
2018-06-30T09:15:20.113Z,1013.6
2018-06-30T09:16:22.414Z,1013.6
2018-06-30T09:17:24.417Z,1013.6
2018-06-30T09:18:26.423Z,1013.6
2018-06-30T09:19:28.707Z,1013.7
2018-06-30T09:20:30.707Z,1013.7
2018-06-30T09:21:32.711Z,1013.7
2018-06-30T09:22:35.382Z,1013.6
2018-06-30T09:23:37.397Z,1013.7
2018-06-30T09:24:39.416Z,1013.7
2018-06-30T09:25:41.695Z,1013.7
2018-06-30T09:26:43.986Z,1013.7
2018-06-30T09:27:46.000Z,1013.7
2018-06-30T09:28:48.009Z,1013.7
2018-06-30T09:29:50.102Z,1013.7
2018-06-30T09:30:52.324Z,1013.7
2018-06-30T09:31:54.329Z,1013.7
2018-06-30T09:32:56.720Z,1013.7
2018-06-30T09:33:59.011Z,1013.7
2018-06-30T09:35:01.289Z,1013.7
2018-06-30T09:36:03.588Z,1013.7
2018-06-30T09:37:05.973Z,1013.7
2018-06-30T09:38:07.988Z,1013.7
2018-06-30T09:39:09.996Z,1013.7
2018-06-30T09:40:12.002Z,1013.7
2018-06-30T09:41:14.399Z,1013.7
2018-06-30T09:42:16.396Z,1013.7
2018-06-30T09:43:18.398Z,1013.6
2018-06-30T09:44:20.434Z,1013.7
2018-06-30T09:45:22.416Z,1013.6
2018-06-30T09:46:24.705Z,1013.7
2018-06-30T09:47:26.720Z,1013.6
2018-06-30T09:48:28.723Z,1013.5
2018-06-30T09:49:30.729Z,1013.5
2018-06-30T09:50:32.731Z,1013.5
2018-06-30T09:51:34.751Z,1013.5
2018-06-30T09:52:36.754Z,1013.5
2018-06-30T09:53:38.765Z,1013.5
2018-06-30T09:54:40.774Z,1013.5
2018-06-30T09:55:42.785Z,1013.5
2018-06-30T09:56:45.222Z,1013.5
2018-06-30T09:57:47.187Z,1013.5
2018-06-30T09:58:49.194Z,1013.5
2018-06-30T09:59:51.209Z,1013.5
2018-06-30T10:00:53.494Z,1013.5
2018-06-30T10:01:55.507Z,1013.5
2018-06-30T10:02:57.522Z,1013.5
2018-06-30T10:03:59.536Z,1013.5
2018-06-30T10:05:01.550Z,1013.5
2018-06-30T10:06:03.959Z,1013.5
2018-06-30T10:07:06.648Z,1013.5
2018-06-30T10:08:08.646Z,1013.5
2018-06-30T10:09:10.707Z,1013.5
2018-06-30T10:10:12.681Z,1013.5
2018-06-30T10:11:14.690Z,1013.5
2018-06-30T10:12:16.705Z,1013.5
2018-06-30T10:13:18.997Z,1013.5
2018-06-30T10:14:21.014Z,1013.5
2018-06-30T10:15:23.336Z,1013.5
2018-06-30T10:16:25.731Z,1013.5
2018-06-30T10:17:28.093Z,1013.5
2018-06-30T10:18:30.477Z,1013.5
2018-06-30T10:19:32.511Z,1013.5
2018-06-30T10:20:34.503Z,1013.5
2018-06-30T10:21:36.515Z,1013.5
2018-06-30T10:22:38.522Z,1013.5
2018-06-30T10:23:40.538Z,1013.5
2018-06-30T10:24:42.559Z,1013.5
2018-06-30T10:25:44.568Z,1013.4
2018-06-30T10:26:46.578Z,1013.4
2018-06-30T10:27:48.596Z,1013.4
2018-06-30T10:28:50.619Z,1013.4
2018-06-30T10:29:52.639Z,1013.5
2018-06-30T10:30:54.641Z,1013.4
2018-06-30T10:31:56.658Z,1013.4
2018-06-30T10:32:58.958Z,1013.4
2018-06-30T10:34:00.966Z,1013.5
2018-06-30T10:35:02.987Z,1013.5
2018-06-30T10:36:05.003Z,1013.5
2018-06-30T10:37:07.024Z,1013.5
2018-06-30T10:38:09.047Z,1013.5
2018-06-30T10:39:11.048Z,1013.5
2018-06-30T10:40:13.069Z,1013.5
2018-06-30T10:41:15.083Z,1013.4
2018-06-30T10:42:17.817Z,1013.5
2018-06-30T10:43:19.786Z,1013.4
2018-06-30T10:44:21.807Z,1013.3
2018-06-30T10:45:24.129Z,1013.4
2018-06-30T10:46:26.443Z,1013.5
2018-06-30T10:47:28.465Z,1013.4
2018-06-30T10:48:30.489Z,1013.4
2018-06-30T10:49:32.772Z,1013.4
2018-06-30T10:50:34.799Z,1013.4
2018-06-30T10:51:36.809Z,1013.4
2018-06-30T10:52:38.835Z,1013.4
2018-06-30T10:53:40.847Z,1013.5
2018-06-30T10:54:42.866Z,1013.4
2018-06-30T10:55:45.181Z,1013.4
2018-06-30T10:56:47.204Z,1013.4
2018-06-30T10:57:49.218Z,1013.5
2018-06-30T10:58:51.823Z,1013.5
2018-06-30T10:59:53.837Z,1013.4
2018-06-30T11:00:56.133Z,1013.5
2018-06-30T11:01:58.150Z,1013.4
2018-06-30T11:03:00.156Z,1013.5
2018-06-30T11:04:02.192Z,1013.5
2018-06-30T11:05:04.569Z,1013.5
2018-06-30T11:06:06.572Z,1013.5
2018-06-30T11:07:08.972Z,1013.4
2018-06-30T11:08:10.982Z,1013.5
2018-06-30T11:09:12.996Z,1013.5
2018-06-30T11:10:15.019Z,1013.4
2018-06-30T11:11:17.895Z,1013.5
2018-06-30T11:12:19.927Z,1013.5
2018-06-30T11:13:21.950Z,1013.4
2018-06-30T11:14:23.953Z,1013.4
2018-06-30T11:15:25.973Z,1013.4
2018-06-30T11:16:27.990Z,1013.4
2018-06-30T11:17:30.037Z,1013.4
2018-06-30T11:18:32.767Z,1013.4
2018-06-30T11:19:34.771Z,1013.4
2018-06-30T11:20:36.789Z,1013.3
2018-06-30T11:21:38.816Z,1013.4
2018-06-30T11:22:41.111Z,1013.3
2018-06-30T11:23:43.125Z,1013.4
2018-06-30T11:24:45.139Z,1013.4
2018-06-30T11:25:47.544Z,1013.4
2018-06-30T11:26:49.829Z,1013.3
2018-06-30T11:27:51.839Z,1013.4
2018-06-30T11:28:53.849Z,1013.3
2018-06-30T11:29:56.169Z,1013.3
2018-06-30T11:30:58.172Z,1013.3
2018-06-30T11:32:00.188Z,1013.3
2018-06-30T11:33:02.198Z,1013.3
2018-06-30T11:34:04.211Z,1013.2
2018-06-30T11:35:06.223Z,1013.3
2018-06-30T11:36:08.528Z,1013.2
2018-06-30T11:37:10.826Z,1013.2
2018-06-30T11:38:12.856Z,1013.2
2018-06-30T11:39:14.867Z,1013.1
2018-06-30T11:40:17.155Z,1013.2
2018-06-30T11:41:19.173Z,1013.2
2018-06-30T11:42:21.570Z,1013.1
2018-06-30T11:43:23.583Z,1013.2
2018-06-30T11:44:25.618Z,1013.1
2018-06-30T11:45:27.615Z,1013.1
2018-06-30T11:46:29.631Z,1013.1
2018-06-30T11:47:31.761Z,1013.2
2018-06-30T11:48:33.779Z,1013.2
2018-06-30T11:49:35.795Z,1013.1
2018-06-30T11:50:37.806Z,1013.2
2018-06-30T11:51:39.822Z,1013.2
2018-06-30T11:52:41.834Z,1013.2
2018-06-30T11:53:43.859Z,1013.1
2018-06-30T11:54:46.146Z,1013.1
2018-06-30T11:55:48.554Z,1013.1
2018-06-30T11:56:50.963Z,1013.1
2018-06-30T11:57:52.973Z,1013
2018-06-30T11:58:54.990Z,1013
2018-06-30T11:59:57.396Z,1013.1
2018-06-30T12:00:59.700Z,1013
2018-06-30T12:02:02.403Z,1013
2018-06-30T12:03:04.713Z,1013
2018-06-30T12:04:06.714Z,1013
2018-06-30T12:05:08.727Z,1013.1
2018-06-30T12:06:10.751Z,1013
2018-06-30T12:07:12.761Z,1013
2018-06-30T12:08:14.775Z,1013
2018-06-30T12:09:16.828Z,1013
2018-06-30T12:10:18.813Z,1013
2018-06-30T12:11:20.811Z,1013.1
2018-06-30T12:12:22.826Z,1013
2018-06-30T12:13:25.237Z,1013
2018-06-30T12:14:27.250Z,1013
2018-06-30T12:15:29.260Z,1013
2018-06-30T12:16:31.271Z,1013
2018-06-30T12:17:33.301Z,1013
2018-06-30T12:18:35.321Z,1013
2018-06-30T12:19:37.332Z,1013
2018-06-30T12:20:39.642Z,1013
2018-06-30T12:21:41.653Z,1013
2018-06-30T12:22:43.691Z,1012.9
2018-06-30T12:23:46.525Z,1012.9
2018-06-30T12:24:48.537Z,1012.9
2018-06-30T12:25:50.564Z,1012.9
2018-06-30T12:26:52.571Z,1012.9
2018-06-30T12:27:54.592Z,1012.9
2018-06-30T12:28:56.607Z,1012.9
2018-06-30T12:29:58.917Z,1012.9
2018-06-30T12:31:00.937Z,1012.9
2018-06-30T12:32:03.069Z,1012.9
2018-06-30T12:33:04.977Z,1012.9
2018-06-30T12:34:07.004Z,1012.9
2018-06-30T12:35:09.283Z,1012.9
2018-06-30T12:36:11.682Z,1012.9
2018-06-30T12:37:13.703Z,1012.9
2018-06-30T12:38:15.712Z,1012.9
2018-06-30T12:39:18.013Z,1012.9
2018-06-30T12:40:20.030Z,1012.9
2018-06-30T12:41:22.040Z,1012.9
2018-06-30T12:42:24.065Z,1012.8
2018-06-30T12:43:26.394Z,1012.8
2018-06-30T12:44:28.396Z,1012.8
2018-06-30T12:45:30.421Z,1012.8
2018-06-30T12:46:32.436Z,1012.8
2018-06-30T12:47:34.724Z,1012.8
2018-06-30T12:48:37.048Z,1012.8
2018-06-30T12:49:39.070Z,1012.8
2018-06-30T12:50:41.396Z,1012.9
2018-06-30T12:51:43.402Z,1012.9
2018-06-30T12:52:45.419Z,1012.9
2018-06-30T12:53:47.441Z,1012.9
2018-06-30T12:54:49.482Z,1012.9
2018-06-30T12:55:51.937Z,1012.9
2018-06-30T12:56:53.951Z,1012.8
2018-06-30T12:57:55.969Z,1012.8
2018-06-30T12:58:57.982Z,1012.8
2018-06-30T13:00:00.003Z,1012.8